Latest Weather Observations for Kuitpo

IDS60901

Issued at 10:41 pm CDT Sunday 19 November 2017 (issued every 10 minutes, with the page automatically refreshed every 10 minutes)

About weather observations | Map of Adelaide area stations | Latest observations for Adelaide area | Other Formats
Station Details ID: 023887 Name: KUITPO FOREST RESERVE Lat: -35.17 Lon: 138.68 Height: 365.0 m
Data from the previous 72 hours. | See also: Recent months at Kuitpo
Date/Time
CDT
Temp
°C
App
Temp
°C
Dew
Point
°C
Rel
Hum
%
Delta-T
°C
Wind Press
QNH
hPa
Press
MSL
hPa
Rain since
9am
mm
Dir  Spd
km/h
Gust
km/h
Spd
kts
Gust
kts
19/10:30pm 21.4 18.1 11.7 54 5.5 E 20 26 11 14 1014.4 1013.6 0.0
19/10:00pm 19.8 16.8 12.6 63 4.1 ESE 20 24 11 13 1014.4 1013.6 0.0
19/09:30pm 19.4 16.7 12.9 66 3.7 ESE 19 22 10 12 1014.3 1013.5 0.0
19/09:00pm 19.4 16.7 12.9 66 3.7 SE 19 24 10 13 1014.1 1013.3 0.0
19/08:30pm 19.7 17.4 12.9 65 3.9 SE 17 22 9 12 1014.3 1013.5 0.0
19/08:00pm 20.0 18.7 13.7 67 3.7 SE 13 20 7 11 1014.2 1013.4 0.0
19/07:30pm 21.0 19.0 13.9 64 4.2 SE 17 24 9 13 1014.0 1013.2 0.0
19/07:00pm 22.0 20.1 14.1 61 4.7 SE 17 26 9 14 1013.8 1013.0 0.0
19/06:30pm 23.2 22.2 14.5 58 5.2 SE 13 24 7 13 1013.6 1012.7 0.0
19/06:00pm 24.7 23.5 13.9 51 6.5 SE 13 20 7 11 1013.5 1012.6 0.0
19/05:30pm 26.5 22.5 8.9 33 9.8 NE 20 32 11 17 1013.1 1012.3 0.0
19/05:00pm 27.2 23.6 10.0 34 9.7 NE 19 33 10 18 1013.0 1012.2 0.0
19/04:30pm 27.4 23.7 10.2 34 9.8 ENE 20 32 11 17 1013.1 1012.3 0.0
19/04:00pm 27.8 24.6 11.4 36 9.5 E 19 30 10 16 1013.5 1012.6 0.0
19/03:30pm 27.0 23.1 9.4 33 9.9 ENE 20 30 11 16 1013.8 1013.0 0.0
19/03:00pm 27.8 26.0 12.2 38 9.2 ENE 13 26 7 14 1014.3 1013.5 0.0
19/02:30pm 25.9 22.4 10.1 37 8.9 ENE 19 33 10 18 1014.7 1013.9 0.0
19/02:00pm 26.1 23.4 11.8 41 8.3 NE 17 26 9 14 1015.0 1014.2 0.0
19/01:30pm 25.4 22.8 10.8 40 8.3 ENE 15 26 8 14 1015.3 1014.5 0.0
19/01:00pm 24.9 22.2 11.8 44 7.6 E 17 24 9 13 1015.5 1014.7 0.0
19/12:30pm 25.0 22.8 13.2 48 7.0 ENE 17 28 9 15 1015.7 1014.9 0.0
19/12:00pm 24.6 22.1 13.5 50 6.6 E 19 32 10 17 1015.7 1014.9 0.0
19/11:30am 24.3 21.8 14.1 53 6.1 ENE 20 35 11 19 1015.7 1014.9 0.0
19/11:00am 23.5 20.9 13.7 54 5.8 E 20 30 11 16 1015.8 1015.0 0.0
19/10:30am 22.6 19.4 14.2 59 5.0 E 24 32 13 17 1015.8 1015.0 0.0
19/10:00am 21.5 19.3 14.4 64 4.2 ENE 19 28 10 15 1015.6 1014.8 0.0
19/09:30am 20.4 18.9 14.3 68 3.6 ENE 15 20 8 11 1015.7 1014.9 0.0
19/09:00am 19.1 16.9 14.4 74 2.8 NE 19 28 10 15 1015.6 1014.8 0.2
19/08:30am 18.5 16.8 14.8 79 2.2 ENE 17 26 9 14 1015.5 1014.7 0.2
19/08:00am 16.8 14.1 13.5 81 1.9 ENE 20 28 11 15 1015.2 1014.4 0.2
19/07:30am 16.4 13.8 13.3 82 1.8 ENE 19 26 10 14 1015.0 1014.2 0.2
19/07:00am 15.3 13.0 14.0 92 0.7 ENE 19 22 10 12 1014.9 1014.1 0.2
19/06:30am 14.0 11.4 13.7 98 0.2 E 20 24 11 13 1014.5 1013.7 0.2
19/06:00am 13.2 10.3 13.0 99 0.1 ESE 20 24 11 13 1014.5 1013.7 0.2
19/05:30am 13.7 10.3 13.7 100 0.0 E 24 28 13 15 1013.9 1013.1 0.2
19/05:00am 13.2 10.4 13.2 100 0.0 E 20 26 11 14 1013.9 1013.1 0.2
19/04:30am 13.0 10.7 13.0 100 0.0 E 17 20 9 11 1014.2 1013.4 0.2
19/04:00am 13.4 11.2 13.4 100 0.0 ESE 17 20 9 11 1014.2 1013.4 0.2
19/03:30am 13.4 11.2 13.4 100 0.0 ESE 17 22 9 12 1014.0 1013.2 0.2
19/03:00am 13.5 12.1 13.3 99 0.1 ESE 13 17 7 9 1013.9 1013.1 0.2
19/02:30am 13.2 11.7 13.0 99 0.1 ESE 13 19 7 10 1014.0 1013.2 0.2
19/02:00am 12.9 11.3 12.7 99 0.1 SE 13 20 7 11 1014.0 1013.2 0.2
19/01:30am 12.7 11.4 12.5 99 0.1 ESE 11 17 6 9 1014.5 1013.7 0.2
19/01:00am 13.0 11.0 12.8 99 0.1 SE 15 20 8 11 1014.9 1014.1 0.2
19/12:30am 13.0 10.3 12.8 99 0.1 SE 19 30 10 16 1014.8 1014.0 0.2
19/12:00am 12.8 10.0 12.6 99 0.1 ESE 19 28 10 15 1014.8 1014.0 0.2
 
Date/Time
CDT
Temp
°C
App
Temp
°C
Dew
Point
°C
Rel
Hum
%
Delta-T
°C
Wind Press
QNH
hPa
Press
MSL
hPa
Rain since
9am
mm
Dir  Spd
km/h
Gust
km/h
Spd
kts
Gust
kts
18/11:30pm 12.8 9.8 12.6 99 0.1 ESE 20 30 11 16 1015.0 1014.2 0.2
18/11:00pm 12.8 9.4 12.6 99 0.1 ESE 22 35 12 19 1014.9 1014.1 0.2
18/10:30pm 12.8 9.8 12.5 98 0.2 ESE 20 33 11 18 1014.9 1014.1 0.2
18/10:00pm 12.7 9.8 12.4 98 0.2 ESE 19 28 10 15 1015.0 1014.2 0.2
18/09:30pm 12.8 9.0 12.3 97 0.3 ESE 24 35 13 19 1014.7 1013.9 0.2
18/09:00pm 12.8 9.7 12.2 96 0.3 SE 20 33 11 18 1014.5 1013.7 0.2
18/08:30pm 13.2 10.1 12.1 93 0.6 SE 20 30 11 16 1014.4 1013.6 0.2
18/08:00pm 14.1 11.7 12.7 91 0.8 SE 17 26 9 14 1014.3 1013.5 0.2
18/07:30pm 15.1 13.2 13.0 87 1.2 SE 15 22 8 12 1014.3 1013.5 0.2
18/07:00pm 15.9 13.2 13.0 83 1.6 SE 19 28 10 15 1014.2 1013.4 0.2
18/06:30pm 16.6 14.3 13.1 80 2.0 SE 17 26 9 14 1014.1 1013.3 0.2
18/06:00pm 17.5 15.3 13.4 77 2.4 ESE 17 24 9 13 1014.1 1013.3 0.2
18/05:30pm 18.4 17.0 13.3 72 2.9 SE 13 20 7 11 1014.0 1013.2 0.2
18/05:00pm 19.0 17.5 13.2 69 3.3 SE 13 24 7 13 1013.7 1012.9 0.2
18/04:30pm 18.9 17.0 12.9 68 3.4 ESE 15 26 8 14 1014.1 1013.3 0.2
18/04:00pm 19.3 17.3 12.8 66 3.7 ESE 15 22 8 12 1014.2 1013.4 0.2
18/03:30pm 19.3 17.7 12.8 66 3.7 SE 13 22 7 12 1014.4 1013.6 0.2
18/03:00pm 19.1 16.8 13.1 68 3.4 ESE 17 26 9 14 1014.8 1014.0 0.2
18/02:30pm 18.1 15.4 12.8 71 3.0 ESE 19 28 10 15 1014.9 1014.1 0.2
18/02:00pm 17.1 14.6 12.2 73 2.7 ESE 17 26 9 14 1015.1 1014.3 0.2
18/01:30pm 18.1 17.0 13.2 73 2.8 ESE 11 17 6 9 1015.3 1014.5 0.2
18/01:00pm 16.5 15.0 11.9 74 2.6 ESE 11 15 6 8 1015.5 1014.7 0.2
18/12:30pm 16.6 15.4 12.8 78 2.1 ESE 11 20 6 11 1015.4 1014.6 0.2
18/12:00pm 15.7 14.0 12.3 80 1.9 SE 13 17 7 9 1015.6 1014.8 0.2
18/11:30am 14.8 13.6 12.7 87 1.2 ESE 11 15 6 8 1015.6 1014.8 0.2
18/11:00am 14.0 13.3 13.1 94 0.5 SE 9 13 5 7 1015.8 1015.0 0.2
18/10:30am 13.8 13.4 13.0 95 0.4 SE 7 11 4 6 1015.8 1015.0 0.0
18/10:00am 13.8 13.5 13.2 96 0.3 SE 7 11 4 6 1015.5 1014.7 0.0
18/09:30am 13.5 11.6 13.0 97 0.3 ESE 15 20 8 11 1015.1 1014.3 0.0
18/09:00am 13.4 11.5 13.1 98 0.2 ESE 15 24 8 13 1015.0 1014.2 6.8
18/08:30am 13.1 11.9 12.9 99 0.1 SE 11 17 6 9 1014.8 1014.0 6.8
18/08:00am 13.0 12.2 12.8 99 0.1 SE 9 15 5 8 1014.7 1013.9 6.8
18/07:30am 12.8 12.3 12.6 99 0.1 SE 7 13 4 7 1014.7 1013.9 6.8
18/07:00am 12.5 11.5 12.3 99 0.1 SE 9 13 5 7 1014.2 1013.4 6.8
18/06:30am 12.4 11.9 12.2 99 0.1 S 6 11 3 6 1014.1 1013.3 6.8
18/06:00am 12.3 11.8 12.1 99 0.1 S 6 9 3 5 1013.8 1013.0 6.8
18/05:30am 12.3 11.6 12.1 99 0.1 S 7 11 4 6 1013.6 1012.7 6.8
18/05:00am 12.3 11.6 12.1 99 0.1 S 7 13 4 7 1013.4 1012.5 6.8
18/04:30am 12.3 10.8 12.0 98 0.2 SSE 11 15 6 8 1013.0 1012.2 6.8
18/04:00am 12.3 11.2 12.0 98 0.2 SE 9 13 5 7 1012.9 1012.1 6.8
18/03:30am 12.3 11.2 12.0 98 0.2 SE 9 17 5 9 1012.8 1012.0 6.8
18/03:00am 12.4 11.3 11.9 97 0.3 SE 9 13 5 7 1013.0 1012.2 6.8
18/02:30am 12.4 11.3 11.9 97 0.3 SSE 9 13 5 7 1013.4 1012.5 6.8
18/02:00am 12.6 11.9 12.1 97 0.3 SE 7 11 4 6 1013.6 1012.7 6.8
18/01:30am 12.6 11.5 12.1 97 0.3 SSW 9 13 5 7 1014.0 1013.2 6.8
18/01:00am 12.7 12.1 12.2 97 0.3 SSW 7 9 4 5 1014.3 1013.5 6.8
18/12:30am 12.6 11.5 12.1 97 0.3 SSW 9 13 5 7 1014.3 1013.5 6.8
18/12:00am 12.6 11.5 12.0 96 0.3 S 9 15 5 8 1014.3 1013.5 6.8
 
Date/Time
CDT
Temp
°C
App
Temp
°C
Dew
Point
°C
Rel
Hum
%
Delta-T
°C
Wind Press
QNH
hPa
Press
MSL
hPa
Rain since
9am
mm
Dir  Spd
km/h
Gust
km/h
Spd
kts
Gust
kts
17/11:30pm 12.6 11.9 12.0 96 0.3 SSE 7 13 4 7 1014.3 1013.5 6.8
17/11:00pm 12.7 12.0 12.1 96 0.3 S 7 11 4 6 1014.2 1013.4 6.8
17/10:30pm 13.0 12.4 12.4 96 0.3 S 7 11 4 6 1014.4 1013.6 6.8
17/10:00pm 13.0 12.4 12.4 96 0.3 SSE 7 13 4 7 1014.3 1013.5 6.8
17/09:30pm 13.1 12.2 12.5 96 0.3 S 9 15 5 8 1014.0 1013.2 6.8
17/09:00pm 13.2 12.0 12.7 97 0.3 SSW 11 17 6 9 1013.8 1013.0 6.8
17/08:30pm 13.4 12.7 13.1 98 0.2 SW 9 15 5 8 1013.7 1012.9 6.8
17/08:00pm 13.5 12.0 13.2 98 0.2 SW 13 17 7 9 1013.5 1012.6 6.8
17/07:30pm 13.3 11.8 13.1 99 0.1 SSW 13 24 7 13 1013.1 1012.3 6.8
17/07:00pm 13.2 10.9 13.0 99 0.1 SW 17 24 9 13 1012.8 1012.0 6.8
17/06:30pm 13.6 11.5 13.6 100 0.0 SSW 17 28 9 15 1012.5 1011.7 6.8
17/06:00pm 14.1 11.8 14.1 100 0.0 SSW 19 32 10 17 1012.2 1011.4 6.8
17/05:30pm 14.5 12.7 14.5 100 0.0 SW 17 24 9 13 1012.2 1011.4 6.8
17/05:00pm 13.8 11.4 13.8 100 0.0 SW 19 33 10 18 1012.2 1011.4 6.8
17/04:30pm 13.8 11.2 13.8 100 0.0 WSW 20 33 11 18 1012.5 1011.7 6.0
17/04:00pm 13.7 11.1 13.7 100 0.0 WSW 20 32 11 17 1012.5 1011.7 5.2
17/03:30pm 13.6 10.9 13.6 100 0.0 WSW 20 32 11 17 1012.5 1011.7 3.8
17/03:00pm 13.5 10.4 13.5 100 0.0 WSW 22 33 12 18 1012.7 1011.9 3.0
17/02:30pm 13.3 9.8 13.3 100 0.0 WSW 24 37 13 20 1012.7 1011.9 2.8
17/02:00pm 13.3 9.8 13.3 100 0.0 WSW 24 37 13 20 1012.7 1011.9 2.6
17/01:30pm 13.3 10.5 13.3 100 0.0 WSW 20 33 11 18 1012.8 1012.0 2.6
17/01:00pm 13.5 11.4 13.5 100 0.0 WSW 17 28 9 15 1012.9 1012.1 2.2
17/12:30pm 13.1 9.5 13.1 100 0.0 WSW 24 37 13 20 1012.9 1012.1 2.2
17/12:00pm 13.1 10.3 13.1 100 0.0 WSW 20 32 11 17 1013.1 1012.3 2.0
17/11:30am 13.0 10.1 13.0 100 0.0 WSW 20 33 11 18 1013.1 1012.3 1.6
17/11:00am 12.7 9.7 12.7 100 0.0 WSW 20 32 11 17 1013.2 1012.4 1.4
17/10:30am 12.4 9.9 12.4 100 0.0 WSW 17 28 9 15 1013.4 1012.5 1.0
17/10:00am 12.3 9.4 12.3 100 0.0 WSW 19 33 10 18 1013.2 1012.4 0.6
17/09:30am 12.0 8.8 12.0 100 0.0 WSW 20 32 11 17 1013.0 1012.2 0.2
17/09:00am 11.8 8.8 11.8 100 0.0 WSW 19 28 10 15 1013.0 1012.2 3.8
17/08:30am 11.7 9.0 11.7 100 0.0 WSW 17 28 9 15 1012.9 1012.1 3.4
17/08:00am 11.4 9.0 11.4 100 0.0 WSW 15 24 8 13 1012.7 1011.9 3.2
17/07:30am 11.2 8.4 11.2 100 0.0 WSW 17 28 9 15 1012.5 1011.7 2.8
17/07:00am 11.0 8.9 11.0 100 0.0 WSW 13 22 7 12 1012.5 1011.7 2.6
17/06:30am 10.8 8.2 10.8 100 0.0 WSW 15 20 8 11 1012.4 1011.6 2.6
17/06:00am 10.6 8.3 10.4 99 0.1 WSW 13 22 7 12 1012.2 1011.4 2.4
17/05:30am 10.4 8.0 10.2 99 0.1 WSW 13 20 7 11 1012.0 1011.2 2.2
17/05:00am 10.3 7.5 10.1 99 0.1 WSW 15 20 8 11 1011.9 1011.1 2.2
17/04:30am 10.2 7.4 10.1 99 0.1 SW 15 20 8 11 1011.8 1011.0 2.2
17/04:00am 10.1 7.3 10.0 99 0.1 SW 15 24 8 13 1011.9 1011.1 2.0
17/03:30am 10.0 6.8 9.9 99 0.1 SW 17 24 9 13 1012.2 1011.4 2.0
17/03:00am 10.0 7.2 9.9 99 0.1 WSW 15 26 8 14 1012.5 1011.7 2.0
17/02:30am 10.0 7.2 9.9 99 0.1 WSW 15 24 8 13 1012.8 1012.0 2.0
17/02:00am 10.0 7.5 9.7 98 0.2 WSW 13 20 7 11 1013.2 1012.4 2.0
17/01:30am 9.9 7.4 9.6 98 0.2 SW 13 22 7 12 1013.7 1012.9 1.6
17/01:00am 9.8 6.9 9.5 98 0.2 SW 15 20 8 11 1014.1 1013.3 1.6
17/12:30am 9.8 7.2 9.3 97 0.3 WSW 13 20 7 11 1014.6 1013.8 1.6
17/12:00am 9.7 7.5 9.2 97 0.3 WSW 11 17 6 9 1014.9 1014.1 1.6
 
Date/Time
CDT
Temp
°C
App
Temp
°C
Dew
Point
°C
Rel
Hum
%
Delta-T
°C
Wind Press
QNH
hPa
Press
MSL
hPa
Rain since
9am
mm
Dir  Spd
km/h
Gust
km/h
Spd
kts
Gust
kts
16/11:30pm 9.6 6.9 9.0 96 0.3 WSW 13 20 7 11 1015.0 1014.2 1.4
16/11:00pm 9.7 7.0 8.8 94 0.5 SW 13 19 7 10 1015.3 1014.5 1.0

Latest Capital City Observations: Canberra | Sydney | Melbourne | Brisbane | Adelaide | Perth | Hobart | Darwin

Other Formats:

Comma delimited format used in spreadsheet applications
http://www.bom.gov.au/fwo/IDS60901/IDS60901.94683.axf

JavaScript Object Notation format (JSON) in row-major order
http://www.bom.gov.au/fwo/IDS60901/IDS60901.94683.json